Baxterville, Mississippi
Current Conditions -  °F | °C
As of 12:53 PM on Tuesday 27 Jan 2015 (Local Time) from KHBG Reporting Station
Clear Clear  
Wind Chill: 69°   Ceiling: Unl
Heat Index: 69°   Visibility: 10mi
Dew Point: 34°   Wind: 9mph
Humidity: 27%   Direction: 310°NW
Pressure: 30.07"   Gusts: NA
Location:  31.0601°N, 89.4815°W
Report Text: KHBG 271853Z AUTO 31008KT 10SM CLR 21/01 A3007 RMK AO2 SLP180 T02060011
Loading
Personal Weather Stations






























Interactive Weather Map New forecast layout! Learn more

10-Day Weather Forecast

Advertisements
Track Severe Weather on mobile